Centerville, TX (75833)

10:31 PM CDT on August 23, 2016 (GMT -0500)
2.3 Miles SSE of Centerville, TX | | Change Station

Elev 430 ft 31.23 °N, 95.97 °W | Updated 2 minutes ago

Light Rain
Light Rain
80.3 °F
Feels Like 86 °F
N
3.0
Wind Variable Wind from SSE
Gusts 3.0 mph

Today
High -- | Low -- °F
--% Chance of Precip.
Yesterday
High -- | Low -- °F
Precip. -- in
Pressure 30.14 in
Visibility 10.0 miles
Clouds Clear
Heat Index 86 °F
Dew Point 76 °F
Humidity 87%
Rainfall 0.00 in
Snow Depth Not available.
6:54 AM 7:57 PM
Waning Gibbous, 61% visible
METAR KDKR 240310Z AUTO 17006KT 10SM -RA CLR 27/27 A3014 RMK AO2
Pressure 30.14 in
Visibility 10.0 miles
Clouds Clear
Heat Index 86 °F
Dew Point 76 °F
Humidity 87%
Rainfall 0.00 in
Snow Depth Not available.
6:54 AM 7:57 PM
Waning Gibbous, 61% visible
METAR KDKR 240310Z AUTO 17006KT 10SM -RA CLR 27/27 A3014 RMK AO2

10-Day Weather Forecast

Almanac

Astronomy

Aug. 23, 2016 Rise Set
Actual Time
Civil Twilight
Nautical Twilight
Astronomical Twilight
Moon
Length of Visible Light
Length of Day
Tomorrow will be .
, % of the Moon is Illuminated

Today's Extremes

State Highs State Lows

Community

WunderPhotos

Upload Photos

1,934,540 photos uploaded!

WunderBlog® & News

Nearby

Air Quality

  Air Quality AQ Index Pollutant
Not available.

Snow Depth

Station Depth Elevation

Earthquake Activity

City Distance Mag. Time & Date
Minimum magnitude displayed is 2.5.

Coastal Water Temperatures

Place Temperature

Stations

Nearby Weather Stations

Station Location Temp. Windchill Dew Point Humidity Wind Precip. Elev Updated Type
                   

Watches & Warnings

There are currently no watches in effect.